Time;durP1;ratioP1;P1;durP2;ratioP2;P2;SDS_P1;SDS_P2;PMS_P1;PMS_P2;Temp;Humidity;BMP_temperature;BMP_pressure;BME280_temperature;BME280_humidity;BME280_pressure;Samples;Min_cycle;Max_cycle;Signal;HPM_P1;HPM_P2
2022/04/15 00:01:03;;;;;;;3.17;2.20;;;;;;;19.17;44.34;97213.34;10604167;27;20047;-54
2022/04/15 00:06:24;;;;;;;3.03;2.30;;;;;;;19.14;44.45;97211.25;10599855;27;20054;-55
2022/04/15 00:11:44;;;;;;;3.30;2.20;;;;;;;19.15;44.53;97210.13;10618559;27;20039;-54
2022/04/15 00:17:04;;;;;;;2.55;2.13;;;;;;;19.13;44.36;97196.94;10595926;27;20059;-54
2022/04/15 00:22:24;;;;;;;2.72;2.15;;;;;;;19.13;44.40;97183.44;10617058;27;20103;-55
2022/04/15 00:27:43;;;;;;;4.32;2.30;;;;;;;19.13;44.55;97188.03;10588289;27;20047;-56
2022/04/15 00:33:03;;;;;;;2.40;2.00;;;;;;;19.11;44.49;97179.44;10614189;27;20482;-56
2022/04/15 00:38:22;;;;;;;2.20;1.80;;;;;;;19.11;44.48;97182.97;10579294;27;20055;-56
2022/04/15 00:43:42;;;;;;;1.80;1.70;;;;;;;19.11;44.58;97196.47;10620774;27;20100;-56
2022/04/15 00:49:01;;;;;;;2.72;1.77;;;;;;;19.09;44.55;97179.78;10594802;27;20398;-56
2022/04/15 00:54:23;;;;;;;2.22;1.92;;;;;;;19.10;44.55;97178.66;10585190;27;20112;-56
2022/04/15 00:59:43;;;;;;;2.22;1.88;;;;;;;19.07;44.70;97176.59;10608618;27;20398;-56
2022/04/15 01:05:05;;;;;;;2.40;1.80;;;;;;;19.08;44.63;97183.56;10591982;27;20470;-56
2022/04/15 01:10:26;;;;;;;2.10;1.80;;;;;;;19.07;44.72;97187.41;10590591;27;20059;-53
2022/04/15 01:15:46;;;;;;;2.00;1.80;;;;;;;19.06;44.56;97191.19;10619108;27;20051;-55
2022/04/15 01:21:07;;;;;;;3.17;2.05;;;;;;;19.06;44.78;97193.09;10597677;27;20052;-53
2022/04/15 01:26:31;;;;;;;2.70;1.73;;;;;;;19.05;44.75;97188.78;10594619;27;20039;-56
2022/04/15 01:31:50;;;;;;;1.90;1.70;;;;;;;19.05;44.70;97192.31;10626475;27;20050;-55
2022/04/15 01:37:11;;;;;;;3.08;1.95;;;;;;;19.05;44.71;97203.13;10621218;27;20046;-56
2022/04/15 01:42:31;;;;;;;2.58;1.70;;;;;;;19.03;44.67;97197.19;10608905;27;20055;-56
2022/04/15 01:47:52;;;;;;;1.88;1.60;;;;;;;19.02;44.77;97206.41;10587689;27;20423;-56
2022/04/15 01:53:11;;;;;;;2.65;1.65;;;;;;;19.02;44.79;97200.22;10618965;27;20051;-56
2022/04/15 01:58:30;;;;;;;2.63;1.60;;;;;;;19.02;44.93;97192.91;10592107;27;20426;-56
2022/04/15 02:03:50;;;;;;;1.63;1.50;;;;;;;19.00;44.90;97200.53;10599075;27;20490;-54
2022/04/15 02:09:10;;;;;;;1.58;1.48;;;;;;;19.01;44.82;97198.63;10586323;27;20138;-56
2022/04/15 02:14:31;;;;;;;2.50;1.50;;;;;;;18.99;44.78;97198.94;10599662;27;20048;-57
2022/04/15 02:19:53;;;;;;;1.55;1.45;;;;;;;18.99;44.73;97200.84;10606179;27;20063;-56
2022/04/15 02:25:12;;;;;;;2.03;1.50;;;;;;;18.98;44.96;97205.44;10607427;27;20047;-56
2022/04/15 02:30:31;;;;;;;2.10;1.63;;;;;;;18.98;44.92;97202.75;10599649;27;20328;-54
2022/04/15 02:35:51;;;;;;;1.88;1.45;;;;;;;18.96;44.82;97196.88;10607884;27;20051;-53
2022/04/15 02:41:11;;;;;;;1.85;1.33;;;;;;;18.95;44.98;97195.25;10634343;27;20136;-55
2022/04/15 02:46:30;;;;;;;1.70;1.40;;;;;;;18.96;45.02;97199.56;10608436;27;20486;-55
2022/04/15 02:51:50;;;;;;;1.77;1.40;;;;;;;18.95;44.91;97187.16;10602775;27;20047;-56
2022/04/15 02:57:09;;;;;;;1.73;1.25;;;;;;;18.94;44.86;97190.97;10602704;27;20047;-54
2022/04/15 03:02:31;;;;;;;1.52;1.42;;;;;;;18.93;44.86;97176.69;10585460;27;20116;-56
2022/04/15 03:07:51;;;;;;;1.90;1.40;;;;;;;18.92;44.96;97190.50;10622526;27;20051;-53
2022/04/15 03:13:10;;;;;;;1.80;1.42;;;;;;;18.92;44.96;97185.09;10620042;27;20054;-55
2022/04/15 03:18:30;;;;;;;1.50;1.40;;;;;;;18.92;44.77;97185.09;10624478;27;20051;-56
2022/04/15 03:23:49;;;;;;;1.50;1.30;;;;;;;18.90;44.94;97184.63;10605837;27;20398;-56
2022/04/15 03:29:08;;;;;;;1.58;1.40;;;;;;;18.89;44.77;97189.19;10602717;27;20058;-54
2022/04/15 03:34:27;;;;;;;2.85;1.65;;;;;;;18.89;44.79;97189.19;10617010;27;20048;-55
2022/04/15 03:39:48;;;;;;;1.88;1.60;;;;;;;18.88;44.86;97192.22;10605491;27;20039;-56
2022/04/15 03:45:07;;;;;;;1.90;1.60;;;;;;;18.88;44.88;97198.41;10593767;27;20405;-55
2022/04/15 03:50:27;;;;;;;1.90;1.70;;;;;;;18.88;44.78;97200.31;10612375;27;20039;-56
2022/04/15 03:55:47;;;;;;;1.77;1.67;;;;;;;18.89;44.91;97191.09;10603639;27;20051;-56
2022/04/15 04:01:06;;;;;;;2.05;1.70;;;;;;;18.89;44.90;97191.09;10615569;27;20043;-55
2022/04/15 04:06:25;;;;;;;2.10;1.48;;;;;;;18.89;44.87;97197.28;10581500;27;20051;-55
2022/04/15 04:11:47;;;;;;;1.60;1.30;;;;;;;18.91;44.92;97199.69;10604256;27;20039;-56
2022/04/15 04:17:07;;;;;;;1.52;1.10;;;;;;;18.92;44.75;97204.00;10598522;27;20055;-54
2022/04/15 04:22:30;;;;;;;1.50;1.40;;;;;;;18.94;44.69;97209.88;10605364;27;20078;-56
2022/04/15 04:27:49;;;;;;;1.42;1.13;;;;;;;18.94;44.88;97207.19;10606192;27;20170;-54
2022/04/15 04:33:09;;;;;;;1.73;1.38;;;;;;;18.95;44.80;97211.47;10602875;27;20043;-56
2022/04/15 04:38:28;;;;;;;1.55;1.45;;;;;;;18.95;44.84;97220.38;10635210;27;20050;-56
2022/04/15 04:43:48;;;;;;;1.55;1.40;;;;;;;18.96;44.84;97210.38;10595243;27;20059;-56
2022/04/15 04:49:07;;;;;;;1.48;1.38;;;;;;;19.00;44.71;97215.94;10606333;27;20031;-54
2022/04/15 04:54:27;;;;;;;2.20;1.40;;;;;;;19.01;44.88;97217.53;10604855;27;20047;-55
2022/04/15 04:59:46;;;;;;;1.40;1.30;;;;;;;19.03;44.90;97226.13;10630677;27;20498;-56
2022/04/15 05:05:06;;;;;;;1.50;1.40;;;;;;;19.05;44.71;97230.13;10601302;27;20390;-56
2022/04/15 05:10:25;;;;;;;1.80;1.50;;;;;;;19.08;44.65;97236.78;10615957;27;20051;-54
2022/04/15 05:15:45;;;;;;;2.15;1.58;;;;;;;19.11;44.70;97253.19;10611433;27;20100;-56
2022/04/15 05:21:04;;;;;;;1.75;1.65;;;;;;;19.15;44.64;97254.16;10635238;27;20055;-54
2022/04/15 05:26:23;;;;;;;2.20;2.00;;;;;;;19.21;44.59;97254.00;10607935;27;20054;-53
2022/04/15 05:31:42;;;;;;;2.38;2.17;;;;;;;19.25;44.42;97263.06;10618905;27;20481;-54
2022/04/15 05:37:02;;;;;;;2.95;2.40;;;;;;;19.28;44.61;97252.44;10616280;27;20059;-56
2022/04/15 05:42:22;;;;;;;2.58;2.38;;;;;;;19.32;44.48;97247.22;10625314;27;20051;-55
2022/04/15 05:47:41;;;;;;;2.78;2.50;;;;;;;19.37;44.45;97268.72;10621846;27;20055;-55
2022/04/15 05:53:00;;;;;;;2.80;2.30;;;;;;;19.41;44.58;97260.78;10588998;27;20059;-55
2022/04/15 05:58:20;;;;;;;3.08;2.80;;;;;;;19.44;44.72;97270.94;10609327;27;20069;-57
2022/04/15 06:03:39;;;;;;;2.85;2.65;;;;;;;19.49;44.56;97284.34;10613042;27;20047;-56
2022/04/15 06:08:59;;;;;;;3.00;2.78;;;;;;;19.50;44.52;97280.50;10621286;27;20048;-53
2022/04/15 06:14:23;;;;;;;2.80;2.58;;;;;;;19.51;44.51;97285.59;10583129;28;20052;-56
2022/04/15 06:19:42;;;;;;;3.28;2.97;;;;;;;19.51;44.38;97288.31;10590973;27;20075;-56
2022/04/15 06:25:02;;;;;;;3.58;3.28;;;;;;;19.53;44.62;97285.31;10603291;27;20554;-54
2022/04/15 06:30:21;;;;;;;3.72;3.42;;;;;;;19.53;44.57;97285.31;10626799;27;20096;-56
2022/04/15 06:35:41;;;;;;;3.47;2.90;;;;;;;19.53;44.70;97288.78;10626854;27;20050;-55
2022/04/15 06:41:01;;;;;;;3.58;3.20;;;;;;;19.55;44.76;97288.47;10624216;27;20077;-56
2022/04/15 06:46:21;;;;;;;4.15;3.05;;;;;;;19.58;44.71;97292.47;10624189;27;20059;-56
2022/04/15 06:51:40;;;;;;;3.63;3.33;;;;;;;19.58;44.86;97295.94;10635390;27;20047;-55
2022/04/15 06:57:00;;;;;;;3.67;3.00;;;;;;;19.59;44.72;97305.66;10621296;27;20055;-56
2022/04/15 07:02:19;;;;;;;3.53;3.22;;;;;;;19.60;44.71;97301.06;10621783;27;20043;-53
2022/04/15 07:07:40;;;;;;;3.72;3.17;;;;;;;19.60;44.61;97306.47;10633382;27;20524;-56
2022/04/15 07:12:59;;;;;;;4.68;3.50;;;;;;;19.60;44.59;97311.88;10638198;27;20039;-55
2022/04/15 07:18:18;;;;;;;4.35;3.30;;;;;;;19.61;44.70;97308.06;10623528;27;20055;-56
2022/04/15 07:23:38;;;;;;;4.05;2.97;;;;;;;19.62;44.74;97309.66;10622939;27;20478;-55
2022/04/15 07:28:58;;;;;;;3.42;3.13;;;;;;;19.63;44.69;97311.25;10623086;27;20086;-55
2022/04/15 07:34:18;;;;;;;3.50;3.20;;;;;;;19.63;44.67;97303.94;10623103;27;20179;-54
2022/04/15 07:39:38;;;;;;;3.55;3.25;;;;;;;19.65;44.58;97306.34;10623793;27;20051;-53
2022/04/15 07:44:58;;;;;;;3.17;2.88;;;;;;;19.65;44.66;97300.94;10622580;27;20058;-54
2022/04/15 07:50:25;;;;;;;3.28;2.83;;;;;;;19.66;44.72;97302.50;10623082;27;20051;-53
2022/04/15 07:55:44;;;;;;;3.10;2.90;;;;;;;19.67;44.63;97304.13;10622266;27;20051;-56
2022/04/15 08:01:04;;;;;;;3.92;3.38;;;;;;;19.67;44.67;97296.00;10622332;27;20055;-53
2022/04/15 08:06:24;;;;;;;3.28;3.03;;;;;;;19.67;44.72;97293.28;10586935;27;20564;-54
2022/04/15 08:11:44;;;;;;;3.40;3.20;;;;;;;19.68;44.65;97293.00;10620374;27;20047;-56
2022/04/15 08:17:03;;;;;;;3.47;3.17;;;;;;;19.68;44.79;97293.00;10636094;27;20417;-56
2022/04/15 08:22:23;;;;;;;3.30;3.00;;;;;;;19.69;44.73;97289.16;10602182;27;20066;-56
2022/04/15 08:27:42;;;;;;;3.53;3.22;;;;;;;19.69;44.90;97294.56;10595413;27;20042;-55
2022/04/15 08:33:05;;;;;;;3.25;2.97;;;;;;;19.70;44.86;97295.38;10603257;27;20756;-55
2022/04/15 08:38:25;;;;;;;3.20;2.90;;;;;;;19.70;44.82;97301.59;10566842;27;20050;-56
2022/04/15 08:43:45;;;;;;;3.17;2.90;;;;;;;19.70;44.88;97296.19;10600458;27;20059;-54
2022/04/15 08:49:07;;;;;;;3.33;2.92;;;;;;;19.72;44.85;97287.78;10603898;27;20222;-56
2022/04/15 08:54:27;;;;;;;3.03;2.70;;;;;;;19.72;44.91;97288.59;10616284;28;20111;-55
2022/04/15 08:59:46;;;;;;;2.92;2.72;;;;;;;19.73;44.92;97287.47;10598150;28;20486;-55
2022/04/15 09:05:07;;;;;;;3.00;2.80;;;;;;;19.72;44.78;97283.19;10616542;28;20059;-54
2022/04/15 09:10:26;;;;;;;3.70;2.85;;;;;;;19.73;44.91;97292.06;10614376;28;20051;-56
2022/04/15 09:15:46;;;;;;;2.70;2.50;;;;;;;19.72;44.71;97285.09;10611727;28;20126;-55
2022/04/15 09:21:36;;;;;;;2.70;2.50;;;;;;;19.72;44.82;97290.50;10606771;28;20047;-56
2022/04/15 09:26:55;;;;;;;3.10;2.80;;;;;;;19.71;44.82;97291.56;10603024;28;20058;-56
2022/04/15 09:32:16;;;;;;;3.08;2.88;;;;;;;19.71;44.75;97281.56;10614432;28;20634;-56
2022/04/15 09:37:39;;;;;;;2.80;2.60;;;;;;;19.70;44.77;97279.97;10600906;28;20122;-56
2022/04/15 09:42:59;;;;;;;2.65;2.45;;;;;;;19.71;44.77;97286.97;10612628;27;20051;-56
2022/04/15 09:48:19;;;;;;;2.72;2.53;;;;;;;19.71;44.78;97286.16;10626172;27;20051;-56
2022/04/15 09:53:39;;;;;;;2.60;2.40;;;;;;;19.70;44.65;97279.16;10626034;27;20066;-57
2022/04/15 09:59:06;;;;;;;2.42;2.22;;;;;;;19.70;44.61;97281.88;10610492;27;20580;-56
2022/04/15 10:04:27;;;;;;;2.78;2.58;;;;;;;19.68;44.60;97287.59;10625526;27;20077;-56
2022/04/15 10:09:47;;;;;;;2.67;2.47;;;;;;;19.69;44.72;97288.38;10610711;27;20487;-56
2022/04/15 10:15:09;;;;;;;2.58;2.38;;;;;;;19.70;44.58;97285.38;10579483;27;20062;-56
2022/04/15 10:20:31;;;;;;;2.60;2.40;;;;;;;19.70;44.48;97295.38;10595143;27;20148;-56
2022/04/15 10:25:51;;;;;;;2.95;2.65;;;;;;;19.69;44.46;97288.38;10593842;27;20055;-56
2022/04/15 10:31:12;;;;;;;2.65;2.38;;;;;;;19.68;44.53;97293.00;10609428;27;20059;-55
2022/04/15 10:36:33;;;;;;;3.03;2.70;;;;;;;19.70;44.43;97295.38;10604676;27;20417;-56
2022/04/15 10:41:58;;;;;;;2.90;2.70;;;;;;;19.69;44.43;97293.78;10617253;27;20079;-56
2022/04/15 10:47:19;;;;;;;2.80;2.60;;;;;;;19.68;44.39;97289.47;10615303;27;20506;-56
2022/04/15 10:52:39;;;;;;;2.63;2.42;;;;;;;19.68;44.29;97279.47;10623074;27;20075;-56
2022/04/15 10:58:12;;;;;;;3.10;2.80;;;;;;;19.68;44.25;97287.59;10600169;27;20129;-56
2022/04/15 11:03:32;;;;;;;2.78;2.50;;;;;;;19.68;44.35;97284.88;10608424;27;20047;-55
2022/04/15 11:08:51;;;;;;;3.20;2.65;;;;;;;19.68;44.11;97275.97;10603560;27;20425;-56
2022/04/15 11:14:16;;;;;;;2.80;2.60;;;;;;;19.68;44.10;97284.06;10634629;27;20130;-56
2022/04/15 11:19:36;;;;;;;3.17;2.92;;;;;;;19.67;44.18;97285.19;10607265;27;20051;-57
2022/04/15 11:24:56;;;;;;;2.80;2.60;;;;;;;19.67;44.05;97296.00;10619288;27;20043;-55
2022/04/15 11:30:16;;;;;;;2.60;2.40;;;;;;;19.66;44.11;97292.50;10611391;27;20458;-56
2022/04/15 11:35:36;;;;;;;3.20;3.00;;;;;;;19.66;44.03;97316.00;10620646;27;20059;-56
2022/04/15 11:40:56;;;;;;;3.10;2.90;;;;;;;19.64;43.91;97300.13;10618155;27;20107;-57
2022/04/15 11:46:15;;;;;;;3.00;2.80;;;;;;;19.65;44.07;97306.34;10630020;27;20513;-56
2022/04/15 11:51:35;;;;;;;2.88;2.60;;;;;;;19.65;43.91;97320.63;10590203;27;20040;-56
2022/04/15 11:56:55;;;;;;;2.90;2.70;;;;;;;19.66;43.96;97318.72;10579855;27;20055;-56
2022/04/15 12:02:18;;;;;;;3.20;2.90;;;;;;;19.65;44.00;97325.25;10582162;27;20075;-55
2022/04/15 12:07:37;;;;;;;2.88;2.67;;;;;;;19.64;43.98;97326.34;10587894;27;20063;-56
2022/04/15 12:12:56;;;;;;;3.05;2.78;;;;;;;19.64;44.02;97318.25;10582321;27;20047;-56
2022/04/15 12:18:16;;;;;;;3.15;2.78;;;;;;;19.64;43.91;97321.75;10625293;27;20036;-54
2022/04/15 12:23:36;;;;;;;3.25;2.95;;;;;;;19.63;43.95;97324.75;10618415;27;20062;-57
2022/04/15 12:34:42;;;;;;;2.92;2.72;;;;;;;19.62;43.72;97315.88;10601718;27;20042;-55
2022/04/15 12:40:07;;;;;;;3.22;2.92;;;;;;;19.61;43.71;97319.66;10596403;27;20044;-57
2022/04/15 12:45:27;;;;;;;3.20;2.90;;;;;;;19.61;43.69;97322.38;10584393;28;20043;-56
2022/04/15 12:50:51;;;;;;;2.75;2.55;;;;;;;19.61;43.65;97319.66;10598636;28;20058;-55
2022/04/15 12:56:13;;;;;;;3.15;2.85;;;;;;;19.62;43.60;97325.88;10622835;27;20152;-55
2022/04/15 13:01:33;;;;;;;3.22;2.92;;;;;;;19.61;43.67;97329.69;10605132;28;20130;-56
2022/04/15 13:06:53;;;;;;;3.00;2.70;;;;;;;19.61;43.51;97318.88;10583274;28;20050;-55
2022/04/15 13:12:13;;;;;;;3.00;2.75;;;;;;;19.60;43.58;97338.88;10591979;27;20043;-56
2022/04/15 13:17:33;;;;;;;2.90;2.70;;;;;;;19.58;43.66;97336.50;10585554;28;20057;-55
2022/04/15 13:22:56;;;;;;;2.90;2.70;;;;;;;19.60;43.61;97338.88;10600146;27;20039;-57
2022/04/15 13:28:16;;;;;;;2.83;2.63;;;;;;;19.56;43.52;97336.81;10615038;27;20478;-56
2022/04/15 13:33:37;;;;;;;2.70;2.50;;;;;;;19.56;43.31;97333.31;10621909;27;20043;-56
2022/04/15 13:38:57;;;;;;;2.35;2.15;;;;;;;19.55;43.32;97332.50;10600365;27;20044;-53
2022/04/15 13:44:16;;;;;;;3.05;2.20;;;;;;;19.54;43.68;97333.63;10600553;27;20410;-56
2022/04/15 13:49:36;;;;;;;2.20;2.10;;;;;;;19.55;43.74;97337.13;10603192;27;20080;-56
2022/04/15 14:00:33;;;;;;;2.40;2.27;;;;;;;19.53;42.64;97339.34;10604150;27;20047;-52
2022/04/15 14:05:52;;;;;;;2.80;2.60;;;;;;;19.52;41.66;97346.66;10603541;27;20054;-53
2022/04/15 14:11:12;;;;;;;3.00;2.70;;;;;;;19.48;40.88;97356.50;10605119;27;20052;-52
2022/04/15 14:16:32;;;;;;;4.38;3.45;;;;;;;19.45;40.31;97353.63;10597375;27;20059;-53
2022/04/15 14:21:52;;;;;;;4.25;3.90;;;;;;;19.41;40.42;97364.25;10598748;27;20521;-55
2022/04/15 14:27:14;;;;;;;4.10;3.70;;;;;;;19.38;40.04;97366.75;10592597;27;20550;-52
2022/04/15 14:32:34;;;;;;;3.60;3.30;;;;;;;19.35;40.04;97360.88;10604687;27;20094;-54
2022/04/15 14:37:54;;;;;;;3.85;2.85;;;;;;;19.33;39.74;97365.00;10598801;27;20040;-53
2022/04/15 14:43:14;;;;;;;2.58;2.38;;;;;;;19.31;39.34;97388.81;10591713;27;20134;-53
2022/04/15 14:48:33;;;;;;;2.40;2.20;;;;;;;19.30;39.70;97373.69;10608220;27;20065;-55
2022/04/15 14:53:52;;;;;;;1.98;1.80;;;;;;;19.31;39.92;97381.50;10632728;27;20050;-52
2022/04/15 14:59:12;;;;;;;1.90;1.70;;;;;;;19.32;39.42;97393.09;10624710;27;20054;-53
2022/04/15 15:04:33;;;;;;;1.63;1.52;;;;;;;19.33;39.35;97378.50;10618171;27;20039;-56
2022/04/15 15:09:54;;;;;;;2.00;1.90;;;;;;;19.34;38.76;97386.28;10613525;27;20515;-54
2022/04/15 15:15:13;;;;;;;1.70;1.60;;;;;;;19.36;38.76;97377.88;10598910;27;20043;-52
2022/04/15 15:20:33;;;;;;;2.78;2.00;;;;;;;19.37;38.80;97392.97;10611595;27;20116;-56
2022/04/15 15:31:30;;;;;;;1.77;1.63;;;;;;;19.38;38.12;97402.66;10612323;27;20498;-55
2022/04/15 15:36:50;;;;;;;1.50;1.40;;;;;;;19.40;38.01;97403.16;10597922;27;20097;-55
2022/04/15 15:42:11;;;;;;;2.17;1.38;;;;;;;19.41;37.69;97393.97;10595427;27;20090;-55
2022/04/15 15:47:31;;;;;;;1.33;1.00;;;;;;;19.45;37.03;97413.06;10616002;27;20326;-52
2022/04/15 15:52:51;;;;;;;1.30;1.20;;;;;;;19.45;37.21;97408.44;10605002;27;20500;-56
2022/04/15 15:58:11;;;;;;;1.02;0.93;;;;;;;19.45;36.40;97419.25;10581590;27;20052;-56
2022/04/15 16:03:31;;;;;;;1.40;1.10;;;;;;;19.47;37.20;97413.56;10595528;27;20094;-56
2022/04/15 16:08:51;;;;;;;1.10;1.00;;;;;;;19.49;36.69;97424.84;10578448;27;20055;-55
2022/04/15 16:14:11;;;;;;;0.80;0.80;;;;;;;19.51;36.29;97434.22;10612670;27;20607;-55
2022/04/15 16:19:30;;;;;;;0.88;0.88;;;;;;;19.52;36.81;97437.72;10601088;27;20065;-55
2022/04/15 16:24:49;;;;;;;0.93;0.85;;;;;;;19.54;36.24;97455.25;10626896;27;20043;-53
2022/04/15 16:30:10;;;;;;;1.20;1.10;;;;;;;19.57;36.32;97448.44;10615444;27;20395;-55
2022/04/15 16:35:29;;;;;;;1.40;1.00;;;;;;;19.61;36.69;97454.00;10606808;27;20036;-55
2022/04/15 16:40:49;;;;;;;1.00;0.90;;;;;;;19.64;36.69;97454.19;10601996;27;20061;-55
2022/04/15 16:46:09;;;;;;;1.20;1.02;;;;;;;19.68;36.44;97457.06;10593996;27;20047;-52
2022/04/15 16:51:29;;;;;;;2.38;1.58;;;;;;;19.70;35.68;97454.88;10599063;27;20051;-55
2022/04/15 17:02:27;;;;;;;1.10;1.10;;;;;;;19.69;35.47;97464.88;10605707;27;20466;-54
2022/04/15 17:07:48;;;;;;;1.45;1.35;;;;;;;19.68;35.22;97471.41;10586694;27;20289;-54
2022/04/15 17:13:34;;;;;;;2.72;1.52;;;;;;;19.65;34.67;97476.63;10603999;27;20123;-54
2022/04/15 17:18:53;;;;;;;2.42;1.50;;;;;;;19.56;34.46;97474.66;10600785;27;20138;-55
2022/04/15 17:24:12;;;;;;;2.47;2.00;;;;;;;19.51;35.03;97476.69;10623269;27;20112;-55
2022/04/15 17:29:33;;;;;;;1.38;1.27;;;;;;;19.58;36.14;97482.44;10617806;27;20047;-52
2022/04/15 17:34:52;;;;;;;1.30;1.20;;;;;;;19.66;36.75;97486.31;10610344;27;20051;-55
2022/04/15 17:40:12;;;;;;;1.48;1.30;;;;;;;19.72;36.96;97495.94;10583120;27;20055;-55
2022/04/15 17:45:32;;;;;;;1.45;1.10;;;;;;;19.78;36.86;97500.13;10609524;27;20122;-52
2022/04/15 17:50:51;;;;;;;1.38;1.00;;;;;;;19.84;36.81;97503.50;10583293;28;20518;-55
2022/04/15 17:56:14;;;;;;;2.05;1.25;;;;;;;19.89;36.94;97508.75;10578709;27;20052;-56
2022/04/15 18:01:34;;;;;;;1.23;1.13;;;;;;;19.93;36.89;97509.72;10616863;27;20574;-55
2022/04/15 18:06:55;;;;;;;1.17;1.10;;;;;;;19.98;36.94;97511.53;10591781;27;20069;-54
2022/04/15 18:12:15;;;;;;;1.30;1.20;;;;;;;20.03;37.01;97524.91;10593312;27;20043;-55
2022/04/15 18:17:34;;;;;;;1.20;1.10;;;;;;;20.06;37.01;97529.72;10618837;27;20176;-56
2022/04/15 18:22:54;;;;;;;1.60;1.05;;;;;;;20.09;37.00;97532.59;10608493;27;20051;-56
2022/04/15 18:28:13;;;;;;;2.53;1.20;;;;;;;20.14;37.03;97537.06;10603444;27;20059;-56
2022/04/15 18:33:32;;;;;;;1.27;1.17;;;;;;;20.18;37.15;97534.53;10619924;27;20128;-56
2022/04/15 18:38:52;;;;;;;1.00;1.00;;;;;;;20.21;37.16;97539.31;10597038;27;20043;-54
2022/04/15 18:44:12;;;;;;;1.50;1.38;;;;;;;20.24;37.06;97544.91;10619097;27;20059;-55
2022/04/15 18:55:14;;;;;;;1.07;1.00;;;;;;;20.28;37.15;97554.00;10633532;27;20047;-55
2022/04/15 19:00:35;;;;;;;1.10;1.00;;;;;;;20.31;37.22;97547.97;10620596;27;20035;-55
2022/04/15 19:05:55;;;;;;;1.30;1.20;;;;;;;20.33;37.12;97553.88;10622015;27;20035;-55
2022/04/15 19:11:15;;;;;;;1.08;1.00;;;;;;;20.34;37.21;97550.06;10599628;27;20095;-56
2022/04/15 19:16:35;;;;;;;1.20;1.10;;;;;;;20.37;37.07;97548.66;10608634;27;20047;-52
2022/04/15 19:21:55;;;;;;;1.20;1.10;;;;;;;20.37;37.19;97562.19;10659843;27;20054;-55
2022/04/15 19:27:15;;;;;;;1.30;1.20;;;;;;;20.38;37.21;97557.56;10666385;27;20054;-56
2022/04/15 19:32:35;;;;;;;0.95;0.95;;;;;;;20.40;37.28;97558.84;10614056;27;20073;-54
2022/04/15 19:37:55;;;;;;;0.90;0.90;;;;;;;20.42;37.15;97558.53;10628382;27;20124;-55
2022/04/15 19:43:15;;;;;;;0.93;0.90;;;;;;;20.44;37.27;97562.50;10609808;27;20055;-56
2022/04/15 19:48:36;;;;;;;1.02;0.95;;;;;;;20.45;37.26;97569.53;10585450;27;20490;-56
2022/04/15 19:53:55;;;;;;;1.20;1.10;;;;;;;20.47;37.27;97578.16;10591020;27;20107;-55
2022/04/15 20:04:53;;;;;;;1.20;1.10;;;;;;;20.52;37.16;97579.91;10603816;27;20043;-55
2022/04/15 20:10:13;;;;;;;0.80;0.80;;;;;;;20.54;37.25;97583.09;10600274;27;20051;-54
2022/04/15 20:15:33;;;;;;;0.77;0.77;;;;;;;20.57;37.28;97582.50;10604561;27;20043;-55
2022/04/15 20:20:52;;;;;;;0.80;0.80;;;;;;;20.59;37.31;97590.31;10610041;27;20047;-54
2022/04/15 20:26:12;;;;;;;0.90;0.90;;;;;;;20.62;37.20;97585.09;10606446;27;20134;-56
2022/04/15 20:31:32;;;;;;;1.10;1.00;;;;;;;20.63;37.18;97578.56;10640019;27;20042;-54
2022/04/15 20:36:51;;;;;;;0.90;0.90;;;;;;;20.65;37.18;97581.75;10625236;27;20563;-52
2022/04/15 20:42:11;;;;;;;1.15;0.95;;;;;;;20.67;37.13;97590.38;10603419;27;20448;-55
2022/04/15 20:47:31;;;;;;;1.05;1.00;;;;;;;20.68;37.00;97585.75;10596002;27;20864;-52
2022/04/15 20:52:50;;;;;;;1.10;1.00;;;;;;;20.70;37.08;97588.97;10608398;27;20047;-55
2022/04/15 20:58:10;;;;;;;1.10;1.00;;;;;;;20.71;37.10;97577.78;10628061;27;20035;-54
2022/04/15 21:03:29;;;;;;;1.00;0.90;;;;;;;20.71;37.15;97587.84;10630841;27;20127;-53
2022/04/15 21:08:49;;;;;;;0.93;0.90;;;;;;;20.72;37.05;97584.81;10620294;27;20047;-54
2022/04/15 21:14:09;;;;;;;0.90;0.90;;;;;;;20.74;37.12;97585.31;10602717;27;20490;-53
2022/04/15 21:19:30;;;;;;;0.90;0.90;;;;;;;20.73;37.22;97578.28;10602193;27;20059;-53
2022/04/15 21:24:49;;;;;;;1.05;0.95;;;;;;;20.75;37.13;97583.38;10600678;27;20047;-55
2022/04/15 21:30:09;;;;;;;1.00;0.98;;;;;;;20.74;37.12;97584.50;10626896;27;20047;-53
2022/04/15 21:35:29;;;;;;;1.00;0.90;;;;;;;20.76;37.14;97584.19;10611542;27;20387;-53
2022/04/15 21:40:49;;;;;;;0.75;0.75;;;;;;;20.76;37.14;97595.81;10616657;27;20066;-55
2022/04/15 21:46:08;;;;;;;0.80;0.80;;;;;;;20.74;37.19;97579.88;10615486;27;20055;-56
2022/04/15 21:57:09;;;;;;;1.33;0.90;;;;;;;20.74;37.19;97593.44;10641580;27;20043;-54
2022/04/15 22:02:29;;;;;;;0.82;0.80;;;;;;;20.75;37.14;97596.94;10637800;27;20031;-53
2022/04/15 22:07:48;;;;;;;0.80;0.80;;;;;;;20.76;37.09;97595.00;10621975;27;20043;-52
2022/04/15 22:13:07;;;;;;;0.88;0.88;;;;;;;20.74;37.31;97604.25;10624683;27;20054;-52
2022/04/15 22:18:28;;;;;;;0.82;0.82;;;;;;;20.76;37.21;97595.00;10605397;27;20043;-55
2022/04/15 22:23:52;;;;;;;0.80;0.80;;;;;;;20.75;37.15;97599.63;10601517;27;20047;-56
2022/04/15 22:29:11;;;;;;;0.82;0.82;;;;;;;20.74;37.14;97590.72;10634756;27;20084;-53
2022/04/15 22:34:31;;;;;;;1.23;0.90;;;;;;;20.73;37.31;97583.69;10609766;27;20047;-54
2022/04/15 22:39:51;;;;;;;0.70;0.70;;;;;;;20.73;37.15;97591.03;10591941;27;20076;-56
2022/04/15 22:45:11;;;;;;;0.80;0.80;;;;;;;20.71;37.11;97599.44;10610449;27;20124;-54
2022/04/15 22:50:31;;;;;;;0.80;0.80;;;;;;;20.72;37.17;97597.56;10585054;27;20054;-52
2022/04/15 23:01:33;;;;;;;0.90;0.90;;;;;;;20.71;37.16;97612.19;10605208;27;20084;-54
2022/04/15 23:06:52;;;;;;;0.80;0.80;;;;;;;20.69;37.16;97606.31;10614687;27;20490;-55
2022/04/15 23:12:12;;;;;;;1.33;0.80;;;;;;;20.68;37.20;97605.50;10607258;27;20047;-55
2022/04/15 23:17:31;;;;;;;0.90;0.90;;;;;;;20.66;37.22;97605.03;10609797;27;20116;-53
2022/04/15 23:22:51;;;;;;;1.33;0.80;;;;;;;20.66;37.23;97618.56;10581720;27;20100;-56
2022/04/15 23:28:11;;;;;;;0.80;0.80;;;;;;;20.65;37.16;97625.06;10588966;27;20700;-56
2022/04/15 23:33:30;;;;;;;1.00;0.80;;;;;;;20.65;37.22;97645.94;10611164;27;20043;-53
2022/04/15 23:38:50;;;;;;;0.80;0.80;;;;;;;20.63;37.33;97643.53;10585628;27;20050;-52
2022/04/15 23:44:09;;;;;;;0.80;0.80;;;;;;;20.62;37.24;97644.66;10591772;27;20054;-55
2022/04/15 23:49:29;;;;;;;1.17;0.80;;;;;;;20.62;37.24;97644.66;10588256;27;20051;-55
2022/04/15 23:54:48;;;;;;;0.80;0.80;;;;;;;20.60;37.39;97654.19;10583828;27;20043;-55
